Terminal Aerodrome Forecast
Issued by NWS

Home | Current Version | Previous Version | Text Only | Print | Product List | Glossary On
Versions: 1 2 3 4 5 6 7 8 9 10 11 12 13 14 15 16 17 18 19
000
FTUS41 KCAR 211120
TAFFVE
TAF
KFVE 211120Z 2112/2212 28007KT P6SM BKN100
     FM211400 30005KT P6SM VCSH OVC090
     FM211600 30007KT P6SM BKN110
     FM220000 30005KT P6SM VCSH BKN150
     FM220100 30004KT P6SM BKN150=

USA.gov is the U.S. government's official web portal to all federal, state and local government web resources and services.